createdAt,value
2023-02-15T00:04:56.533Z,70.83
2023-02-15T00:11:12.489Z,70.13
2023-02-15T00:13:41.810Z,69.99
2023-02-15T00:16:13.501Z,69.68
2023-02-15T00:19:11.696Z,69.51
2023-02-15T00:21:58.136Z,69.15
2023-02-15T00:24:53.171Z,68.60
2023-02-15T00:27:25.271Z,68.14
2023-02-15T00:29:55.322Z,67.68
2023-02-15T00:32:35.436Z,67.83
2023-02-15T00:35:03.644Z,67.76
2023-02-15T00:37:31.654Z,67.62
2023-02-15T00:40:15.418Z,67.60
2023-02-15T00:42:42.721Z,67.34
2023-02-15T00:45:29.573Z,67.77
2023-02-15T00:48:09.310Z,68.06
2023-02-15T00:51:08.873Z,68.55
2023-02-15T00:53:39.812Z,69.14
2023-02-15T00:56:14.344Z,69.32
2023-02-15T00:58:41.666Z,69.56
2023-02-15T01:05:16.225Z,69.53
2023-02-15T01:07:44.815Z,69.63
2023-02-15T01:10:48.816Z,69.55
2023-02-15T01:13:33.636Z,69.51
2023-02-15T01:16:38.232Z,69.69
2023-02-15T01:19:11.990Z,69.20
2023-02-15T01:21:41.081Z,68.06
2023-02-15T01:24:24.019Z,66.88
2023-02-15T01:26:54.966Z,66.12
2023-02-15T01:29:30.550Z,65.13
2023-02-15T01:32:01.422Z,64.63
2023-02-15T01:34:39.080Z,63.92
2023-02-15T01:40:18.940Z,64.87
2023-02-15T01:42:46.848Z,64.72
2023-02-15T01:45:30.487Z,65.40
2023-02-15T01:48:23.745Z,66.22
2023-02-15T01:51:14.988Z,66.58
2023-02-15T01:53:48.081Z,67.70
2023-02-15T01:56:29.233Z,68.03
2023-02-15T01:59:42.680Z,68.36
2023-02-15T02:02:14.272Z,68.41
2023-02-15T02:04:59.630Z,68.52
2023-02-15T02:10:02.580Z,69.53
2023-02-15T02:13:36.788Z,69.94
2023-02-15T02:16:16.670Z,70.21
2023-02-15T02:20:20.416Z,70.14
2023-02-15T02:24:12.190Z,70.43
2023-02-15T02:26:57.391Z,70.58
2023-02-15T02:30:26.300Z,70.37
2023-02-15T02:33:30.028Z,69.88
2023-02-15T02:36:34.514Z,69.40
2023-02-15T02:39:45.580Z,69.09
2023-02-15T02:43:23.782Z,68.56
2023-02-15T02:46:08.619Z,68.21
2023-02-15T02:49:05.499Z,67.52
2023-02-15T02:55:53.968Z,65.75
2023-02-15T02:58:34.828Z,65.10
2023-02-15T03:05:22.116Z,64.37
2023-02-15T03:08:01.571Z,64.63
2023-02-15T03:10:38.040Z,65.26
2023-02-15T03:13:19.169Z,65.50
2023-02-15T03:16:28.969Z,66.12
2023-02-15T03:19:22.977Z,66.79
2023-02-15T03:22:30.225Z,67.21
2023-02-15T03:25:09.481Z,67.44
2023-02-15T03:28:59.022Z,68.11
2023-02-15T03:31:45.523Z,68.01
2023-02-15T03:34:59.262Z,67.90
2023-02-15T03:37:53.448Z,67.25
2023-02-15T03:41:17.635Z,66.64
2023-02-15T03:44:35.051Z,65.92
2023-02-15T03:47:19.435Z,65.52
2023-02-15T03:50:43.153Z,65.08
2023-02-15T03:53:51.424Z,64.76
2023-02-15T03:57:19.251Z,64.77
2023-02-15T04:01:17.915Z,64.25
2023-02-15T04:04:14.131Z,64.46
2023-02-15T04:06:50.843Z,64.45
2023-02-15T04:09:55.940Z,64.55
2023-02-15T04:12:57.840Z,64.63
2023-02-15T04:15:57.667Z,64.72
2023-02-15T04:19:11.050Z,64.88
2023-02-15T04:22:31.010Z,65.25
2023-02-15T04:25:31.842Z,65.13
2023-02-15T04:29:06.685Z,64.98
2023-02-15T04:35:50.312Z,64.40
2023-02-15T04:38:26.885Z,64.46
2023-02-15T04:41:37.926Z,64.93
2023-02-15T04:44:34.190Z,64.96
2023-02-15T04:47:19.185Z,64.86
2023-02-15T04:49:48.431Z,64.81
2023-02-15T04:52:26.908Z,64.95
2023-02-15T04:55:03.413Z,65.07
2023-02-15T05:01:01.745Z,64.98
2023-02-15T05:04:18.273Z,64.65
2023-02-15T05:07:21.641Z,64.88
2023-02-15T05:10:36.705Z,65.21
2023-02-15T05:16:36.494Z,65.37
2023-02-15T05:19:16.947Z,65.95
2023-02-15T05:22:07.546Z,66.44
2023-02-15T05:24:55.155Z,66.90
2023-02-15T05:35:40.260Z,69.15
2023-02-15T05:38:11.701Z,70.25
2023-02-15T05:41:23.298Z,70.68
2023-02-15T05:43:57.206Z,71.25
2023-02-15T05:46:26.257Z,71.22
2023-02-15T05:49:18.148Z,71.29
2023-02-15T05:52:16.804Z,70.57
2023-02-15T05:55:11.627Z,69.76
2023-02-15T05:58:21.773Z,68.57
2023-02-15T06:01:00.194Z,68.04
2023-02-15T06:03:41.539Z,68.03
2023-02-15T06:06:43.134Z,67.66
2023-02-15T06:09:30.644Z,67.52
2023-02-15T06:12:31.977Z,67.62
2023-02-15T06:15:24.049Z,67.55
2023-02-15T06:18:15.480Z,67.44
2023-02-15T06:20:52.739Z,67.26
2023-02-15T06:23:31.870Z,67.14
2023-02-15T06:26:11.951Z,66.80
2023-02-15T06:29:00.238Z,66.86
2023-02-15T06:32:00.421Z,66.50
2023-02-15T06:34:32.875Z,66.55
2023-02-15T06:38:01.351Z,66.52
2023-02-15T06:40:52.311Z,66.76
2023-02-15T06:43:33.353Z,66.99
2023-02-15T06:46:03.162Z,66.92
2023-02-15T06:49:02.677Z,67.03
2023-02-15T06:51:42.363Z,66.84
2023-02-15T06:55:18.298Z,66.64
2023-02-15T06:58:07.923Z,66.63
2023-02-15T07:00:42.920Z,66.58
2023-02-15T07:03:14.571Z,66.76
2023-02-15T07:06:07.098Z,66.89
2023-02-15T07:08:44.309Z,66.67
2023-02-15T07:16:33.102Z,67.15
2023-02-15T07:19:43.370Z,66.86
2023-02-15T07:22:20.303Z,66.16
2023-02-15T07:26:40.892Z,66.55
2023-02-15T07:29:25.335Z,66.47
2023-02-15T07:33:05.107Z,66.12
2023-02-15T07:36:39.110Z,66.09
2023-02-15T07:39:12.853Z,65.46
2023-02-15T07:41:47.689Z,64.87
2023-02-15T07:47:50.293Z,63.46
2023-02-15T07:50:22.036Z,62.97
2023-02-15T07:53:14.351Z,63.04
2023-02-15T07:55:47.403Z,62.48
2023-02-15T07:58:43.365Z,62.58
2023-02-15T08:01:14.401Z,62.98
2023-02-15T08:03:47.430Z,63.08
2023-02-15T08:06:17.023Z,62.83
2023-02-15T08:08:50.980Z,62.51
2023-02-15T08:11:27.656Z,61.97
2023-02-15T08:14:18.845Z,61.94
2023-02-15T08:16:52.179Z,61.80
2023-02-15T08:19:25.412Z,61.53
2023-02-15T08:22:01.485Z,61.94
2023-02-15T08:24:41.160Z,61.92
2023-02-15T08:27:31.818Z,61.95
2023-02-15T08:30:09.367Z,62.02
2023-02-15T08:32:39.095Z,62.03
2023-02-15T08:35:08.611Z,62.01
2023-02-15T08:37:41.069Z,61.85
2023-02-15T08:40:11.165Z,62.09
2023-02-15T08:42:41.699Z,61.74
2023-02-15T08:45:13.582Z,61.49
2023-02-15T08:47:42.292Z,62.09
2023-02-15T08:50:19.812Z,62.37
2023-02-15T08:52:55.564Z,62.13
2023-02-15T08:55:32.512Z,62.12
2023-02-15T08:58:01.786Z,61.38
2023-02-15T09:01:00.925Z,60.14
2023-02-15T09:03:33.816Z,58.08
2023-02-15T09:06:02.470Z,57.01
2023-02-15T09:08:47.296Z,56.86
2023-02-15T09:11:50.340Z,56.06
2023-02-15T09:15:15.551Z,55.46
2023-02-15T09:17:48.743Z,55.09
2023-02-15T09:23:58.602Z,53.97
2023-02-15T09:29:54.646Z,52.71
2023-02-15T09:33:51.948Z,52.44
2023-02-15T09:42:34.671Z,51.34
2023-02-15T09:45:25.369Z,51.45
2023-02-15T09:48:32.217Z,50.92
2023-02-15T09:51:11.194Z,50.94
2023-02-15T09:54:45.182Z,50.62
2023-02-15T09:57:22.320Z,50.00
2023-02-15T09:59:58.805Z,49.73
2023-02-15T10:02:59.375Z,49.17
2023-02-15T10:11:16.474Z,46.37
2023-02-15T10:14:30.294Z,46.69
2023-02-15T10:17:31.963Z,46.59
2023-02-15T10:20:43.957Z,46.03
2023-02-15T10:24:02.131Z,45.16
2023-02-15T10:27:08.689Z,44.33
2023-02-15T10:30:06.088Z,43.99
2023-02-15T10:33:42.706Z,44.12
2023-02-15T10:37:06.716Z,43.35
2023-02-15T10:41:05.809Z,42.83
2023-02-15T10:44:16.125Z,42.36
2023-02-15T10:47:33.939Z,42.26
2023-02-15T10:51:06.740Z,41.01
2023-02-15T10:53:58.010Z,40.62
2023-02-15T10:56:58.333Z,40.53
2023-02-15T11:00:18.952Z,40.19
2023-02-15T11:03:30.774Z,39.46
2023-02-15T11:06:43.229Z,39.54
2023-02-15T11:09:19.501Z,39.02
2023-02-15T11:11:53.393Z,38.03
2023-02-15T11:14:29.613Z,37.84
2023-02-15T11:17:09.034Z,37.41
2023-02-15T11:20:44.034Z,37.87
2023-02-15T11:23:57.183Z,37.38
2023-02-15T11:26:26.399Z,37.31
2023-02-15T11:29:48.776Z,36.86
2023-02-15T11:32:25.433Z,35.98
2023-02-15T11:35:05.153Z,35.43
2023-02-15T11:38:24.200Z,34.80
2023-02-15T11:41:48.447Z,34.37
2023-02-15T11:44:34.339Z,33.89
2023-02-15T11:47:21.851Z,33.81
2023-02-15T11:49:54.010Z,34.43
2023-02-15T11:52:30.364Z,34.78
2023-02-15T11:55:11.080Z,34.56
2023-02-15T11:58:22.781Z,34.63
2023-02-15T12:02:15.523Z,34.66
2023-02-15T12:05:00.502Z,35.91
2023-02-15T12:08:07.044Z,36.38
2023-02-15T12:11:08.184Z,36.39
2023-02-15T12:13:39.167Z,36.88
2023-02-15T12:16:11.503Z,36.29
2023-02-15T12:26:42.865Z,36.59
2023-02-15T12:29:18.072Z,36.43
2023-02-15T12:32:30.622Z,36.25
2023-02-15T12:36:31.633Z,35.87
2023-02-15T12:39:43.836Z,36.50
2023-02-15T12:42:27.888Z,36.66
2023-02-15T12:45:33.913Z,37.01
2023-02-15T12:48:29.460Z,37.29
2023-02-15T12:51:43.244Z,37.62
2023-02-15T12:54:28.845Z,37.93
2023-02-15T12:57:24.198Z,38.77
2023-02-15T13:00:06.342Z,39.18
2023-02-15T13:03:12.453Z,38.72
2023-02-15T13:05:50.070Z,37.53
2023-02-15T13:09:03.476Z,36.88
2023-02-15T13:12:12.968Z,36.62
2023-02-15T13:15:48.226Z,36.17
2023-02-15T13:18:55.846Z,36.33
2023-02-15T13:21:47.969Z,36.35
2023-02-15T13:24:32.916Z,36.46
2023-02-15T13:28:31.826Z,35.79
2023-02-15T13:31:07.934Z,35.33
2023-02-15T13:34:06.764Z,34.15
2023-02-15T13:36:58.397Z,34.50
2023-02-15T13:39:46.364Z,35.23
2023-02-15T13:42:39.041Z,35.76
2023-02-15T13:45:28.679Z,36.91
2023-02-15T13:48:09.505Z,37.75
2023-02-15T13:50:56.788Z,37.16
2023-02-15T13:54:24.459Z,36.74
2023-02-15T14:01:30.931Z,37.98
2023-02-15T14:11:12.394Z,39.17
2023-02-15T14:18:10.369Z,40.37
2023-02-15T14:21:15.312Z,41.01
2023-02-15T14:24:23.651Z,40.62
2023-02-15T14:29:38.567Z,39.13
2023-02-15T14:32:58.566Z,38.60
2023-02-15T14:36:32.180Z,39.50
2023-02-15T14:39:33.845Z,39.71
2023-02-15T14:42:40.383Z,39.89
2023-02-15T14:45:24.926Z,40.27
2023-02-15T14:48:46.678Z,40.12
2023-02-15T14:52:12.198Z,40.07
2023-02-15T15:02:49.911Z,40.23
2023-02-15T15:05:35.600Z,40.50
2023-02-15T15:09:15.648Z,40.52
2023-02-15T15:13:00.098Z,40.79
2023-02-15T15:17:06.192Z,40.52
2023-02-15T15:19:52.396Z,40.53
2023-02-15T15:22:26.491Z,40.87
2023-02-15T15:25:46.451Z,40.70
2023-02-15T15:28:34.647Z,40.40
2023-02-15T15:31:33.839Z,40.95
2023-02-15T15:34:41.164Z,40.45
2023-02-15T15:42:32.801Z,40.24
2023-02-15T15:45:05.010Z,40.24
2023-02-15T15:48:15.483Z,40.30
2023-02-15T15:50:49.507Z,40.21
2023-02-15T15:53:30.326Z,40.34
2023-02-15T15:56:05.026Z,40.75
2023-02-15T15:58:51.404Z,41.09
2023-02-15T16:01:40.164Z,41.20
2023-02-15T16:04:32.949Z,40.93
2023-02-15T16:07:31.971Z,40.99
2023-02-15T16:10:25.830Z,41.27
2023-02-15T16:13:45.704Z,41.21
2023-02-15T16:17:12.492Z,41.32
2023-02-15T16:20:14.027Z,41.29
2023-02-15T16:23:08.622Z,41.27
2023-02-15T16:26:39.610Z,41.68
2023-02-15T16:29:35.085Z,41.69
2023-02-15T16:32:28.353Z,42.09
2023-02-15T16:35:29.796Z,42.03
2023-02-15T16:37:58.998Z,42.26
2023-02-15T16:41:05.409Z,42.48
2023-02-15T16:44:14.672Z,42.43
2023-02-15T16:46:57.256Z,42.46
2023-02-15T16:49:32.663Z,42.62
2023-02-15T16:52:17.026Z,42.71
2023-02-15T16:54:52.257Z,42.78
2023-02-15T16:57:57.386Z,42.75
2023-02-15T17:00:49.660Z,43.24
2023-02-15T17:03:28.002Z,43.32
2023-02-15T17:06:38.682Z,43.54
2023-02-15T17:09:41.611Z,43.48
2023-02-15T17:13:30.202Z,43.79
2023-02-15T17:16:05.309Z,43.91
2023-02-15T17:18:59.592Z,44.02
2023-02-15T17:21:54.042Z,44.12
2023-02-15T17:28:44.603Z,44.66
2023-02-15T17:31:46.367Z,44.77
2023-02-15T17:34:57.244Z,44.83
2023-02-15T17:37:51.241Z,45.10
2023-02-15T17:40:42.648Z,45.07
2023-02-15T17:43:47.989Z,45.21
2023-02-15T17:46:48.008Z,45.54
2023-02-15T17:49:35.442Z,45.98
2023-02-15T17:52:14.896Z,46.11
2023-02-15T17:55:42.467Z,45.95
2023-02-15T17:58:20.755Z,46.23
2023-02-15T18:01:25.321Z,46.44
2023-02-15T18:04:53.298Z,46.65
2023-02-15T18:07:50.929Z,46.80
2023-02-15T18:10:51.053Z,46.90
2023-02-15T18:14:18.130Z,47.07
2023-02-15T18:17:01.651Z,47.13
2023-02-15T18:20:09.770Z,47.26
2023-02-15T18:23:31.710Z,47.48
2023-02-15T18:26:34.387Z,47.73
2023-02-15T18:29:35.317Z,47.90
2023-02-15T18:33:15.989Z,48.20
2023-02-15T18:36:08.329Z,48.31
2023-02-15T18:39:55.099Z,48.61
2023-02-15T18:42:50.871Z,48.82
2023-02-15T18:46:13.659Z,49.10
2023-02-15T18:49:03.097Z,49.14
2023-02-15T18:57:00.514Z,49.54
2023-02-15T19:00:44.076Z,49.49
2023-02-15T19:08:26.173Z,50.08
2023-02-15T19:25:04.010Z,48.95
2023-02-15T19:27:52.630Z,48.00
2023-02-15T19:30:49.044Z,48.34
2023-02-15T19:34:16.118Z,48.38
2023-02-15T19:36:50.139Z,48.51
2023-02-15T19:54:46.375Z,49.67
2023-02-15T20:11:42.831Z,50.97
2023-02-15T20:15:06.143Z,51.12
2023-02-15T20:17:38.867Z,51.37
2023-02-15T20:20:15.686Z,51.56
2023-02-15T20:23:35.192Z,51.54
2023-02-15T20:26:33.222Z,52.22
2023-02-15T20:33:09.041Z,52.66
2023-02-15T20:36:25.224Z,52.77
2023-02-15T20:39:20.632Z,53.00
2023-02-15T20:46:08.334Z,53.34
2023-02-15T20:49:24.232Z,53.68
2023-02-15T20:52:42.113Z,53.96
2023-02-15T21:00:35.133Z,54.05
2023-02-15T21:08:19.055Z,54.60
2023-02-15T21:10:48.590Z,54.46
2023-02-15T21:13:33.043Z,54.42
2023-02-15T21:16:02.688Z,54.88
2023-02-15T21:18:33.226Z,54.93
2023-02-15T21:21:03.450Z,54.87
2023-02-15T21:23:37.381Z,54.98
2023-02-15T21:26:06.006Z,55.14
2023-02-15T21:28:34.285Z,55.54
2023-02-15T21:31:03.656Z,55.68
2023-02-15T21:33:32.271Z,55.53
2023-02-15T21:36:01.465Z,55.98
2023-02-15T21:38:30.149Z,56.01
2023-02-15T21:41:18.293Z,56.34
2023-02-15T21:44:25.072Z,56.20
2023-02-15T21:47:11.884Z,56.58
2023-02-15T21:49:40.379Z,56.66
2023-02-15T21:52:14.535Z,56.98
2023-02-15T21:54:43.679Z,57.08
2023-02-15T21:57:16.038Z,57.06
2023-02-15T21:59:44.498Z,57.15
2023-02-15T22:02:30.934Z,57.32
2023-02-15T22:05:01.990Z,57.44
2023-02-15T22:07:30.764Z,57.67
2023-02-15T22:09:58.945Z,57.69
2023-02-15T22:12:27.349Z,57.90
2023-02-15T22:14:55.592Z,58.31
2023-02-15T22:17:26.429Z,58.11
2023-02-15T22:19:54.921Z,58.58
2023-02-15T22:22:23.087Z,58.81
2023-02-15T22:24:51.262Z,58.58
2023-02-15T22:27:25.974Z,58.70
2023-02-15T22:29:56.955Z,58.72
2023-02-15T22:32:26.847Z,59.19
2023-02-15T22:34:57.473Z,59.10
2023-02-15T22:37:27.183Z,59.28
2023-02-15T22:39:55.765Z,59.35
2023-02-15T22:42:25.502Z,59.29
2023-02-15T22:44:54.879Z,59.37
2023-02-15T22:47:27.774Z,59.32
2023-02-15T22:49:55.938Z,59.81
2023-02-15T22:52:24.952Z,59.61
2023-02-15T22:54:57.205Z,59.75
2023-02-15T22:57:31.626Z,59.58
2023-02-15T23:00:03.381Z,59.79
2023-02-15T23:02:32.168Z,59.77
2023-02-15T23:05:00.797Z,59.78
2023-02-15T23:07:29.234Z,60.16
2023-02-15T23:09:58.142Z,60.10
2023-02-15T23:12:28.054Z,60.07
2023-02-15T23:14:56.119Z,60.23
2023-02-15T23:17:24.293Z,60.28
2023-02-15T23:19:52.794Z,60.15
2023-02-15T23:22:20.957Z,60.50
2023-02-15T23:24:52.189Z,60.32
2023-02-15T23:27:49.856Z,60.48
2023-02-15T23:30:19.415Z,60.45
2023-02-15T23:32:48.479Z,60.83
2023-02-15T23:35:18.180Z,60.95
2023-02-15T23:37:46.465Z,60.65
2023-02-15T23:40:37.263Z,61.12
2023-02-15T23:43:05.935Z,60.92
2023-02-15T23:45:37.162Z,61.23
2023-02-15T23:48:30.138Z,61.03
2023-02-15T23:50:59.341Z,61.13
2023-02-15T23:53:27.509Z,61.43
2023-02-15T23:55:58.149Z,61.30
2023-02-15T23:58:35.581Z,61.34
